Time;durP1;ratioP1;P1;durP2;ratioP2;P2;SDS_P1;SDS_P2;PMS_P1;PMS_P2;Temp;Humidity;BMP_temperature;BMP_pressure;BME280_temperature;BME280_humidity;BME280_pressure;Samples;Min_cycle;Max_cycle;Signal;HPM_P1;HPM_P2
2021/01/22 00:01:56;;;;;;;2.90;1.80;;;5.50;99.90;;;;;;5023306;28;20206;-76
2021/01/22 00:04:24;;;;;;;1.73;1.60;;;5.50;99.90;;;;;;5037590;28;20205;-77
2021/01/22 00:06:51;;;;;;;1.70;1.60;;;5.50;99.90;;;;;;5037801;28;20510;-77
2021/01/22 00:09:18;;;;;;;1.73;1.57;;;5.50;99.90;;;;;;5014506;28;20274;-77
2021/01/22 00:11:44;;;;;;;3.93;1.43;;;5.50;99.90;;;;;;5023899;28;20248;-77
2021/01/22 00:14:11;;;;;;;1.33;0.93;;;5.50;99.90;;;;;;5042514;28;20577;-77
2021/01/22 00:16:37;;;;;;;0.87;0.50;;;5.30;99.90;;;;;;5042220;28;20504;-76
2021/01/22 00:19:05;;;;;;;1.07;0.53;;;5.20;99.90;;;;;;5042036;28;20628;-77
2021/01/22 00:21:32;;;;;;;0.70;0.40;;;5.30;99.90;;;;;;5040827;28;20244;-78
2021/01/22 00:23:58;;;;;;;0.57;0.50;;;5.20;99.90;;;;;;5039333;28;20286;-76
2021/01/22 00:26:24;;;;;;;2.10;0.30;;;5.20;99.90;;;;;;5041662;28;20272;-77
2021/01/22 00:28:50;;;;;;;1.63;0.37;;;5.10;99.90;;;;;;5026821;28;20216;-77
2021/01/22 00:31:17;;;;;;;0.70;0.43;;;5.20;99.90;;;;;;5027325;28;20247;-76
2021/01/22 00:33:43;;;;;;;0.77;0.77;;;5.20;99.90;;;;;;5036341;28;20212;-76
2021/01/22 00:36:10;;;;;;;0.67;0.60;;;5.20;99.90;;;;;;5026578;28;20206;-76
2021/01/22 00:38:36;;;;;;;1.07;0.90;;;5.20;99.90;;;;;;5016964;28;20294;-77
2021/01/22 00:41:03;;;;;;;3.10;0.80;;;5.10;99.90;;;;;;5021714;28;21226;-76
2021/01/22 00:43:29;;;;;;;0.70;0.70;;;5.20;99.90;;;;;;5038217;28;20200;-76
2021/01/22 00:45:56;;;;;;;0.83;0.80;;;5.00;99.90;;;;;;5036456;28;20268;-77
2021/01/22 00:48:22;;;;;;;0.57;0.57;;;5.00;99.90;;;;;;5041546;28;20342;-76
2021/01/22 00:50:49;;;;;;;1.17;0.60;;;4.90;99.90;;;;;;5025118;28;20231;-77
2021/01/22 00:53:15;;;;;;;0.80;0.80;;;4.70;99.90;;;;;;5037571;28;20344;-77
2021/01/22 00:55:42;;;;;;;1.43;0.90;;;4.90;99.90;;;;;;5026429;28;20209;-76
2021/01/22 00:58:08;;;;;;;1.83;0.70;;;4.90;99.90;;;;;;5034642;28;20229;-77
2021/01/22 01:00:34;;;;;;;0.97;0.80;;;4.80;99.90;;;;;;5032599;28;20299;-77
2021/01/22 01:03:01;;;;;;;1.50;0.80;;;4.80;99.90;;;;;;5026941;28;20291;-77
2021/01/22 01:05:28;;;;;;;1.10;1.00;;;4.80;99.90;;;;;;5036805;28;20205;-77
2021/01/22 01:07:54;;;;;;;1.20;0.80;;;4.80;99.90;;;;;;5013182;28;20260;-76
2021/01/22 01:10:21;;;;;;;1.57;1.20;;;4.90;99.90;;;;;;5041404;28;20296;-76
2021/01/22 01:12:47;;;;;;;2.17;1.97;;;4.90;99.90;;;;;;5028626;28;20628;-76
2021/01/22 01:15:14;;;;;;;1.23;1.03;;;4.80;99.90;;;;;;5033947;28;20208;-77
2021/01/22 01:17:41;;;;;;;2.47;1.27;;;4.90;99.90;;;;;;5037218;28;20283;-76
2021/01/22 01:20:08;;;;;;;2.53;1.30;;;5.00;99.90;;;;;;5038762;28;20642;-77
2021/01/22 01:22:35;;;;;;;2.87;1.60;;;5.10;99.90;;;;;;5040598;28;20218;-77
2021/01/22 01:25:01;;;;;;;2.83;1.60;;;5.00;99.90;;;;;;5023089;28;20214;-76
2021/01/22 01:27:28;;;;;;;1.60;1.50;;;5.00;99.90;;;;;;5020284;28;20268;-76
2021/01/22 01:29:54;;;;;;;1.60;1.50;;;4.80;99.90;;;;;;5052092;28;20207;-77
2021/01/22 01:32:20;;;;;;;2.23;1.90;;;4.60;99.90;;;;;;5003393;28;20253;-77
2021/01/22 01:34:47;;;;;;;3.47;2.37;;;4.50;99.90;;;;;;5019047;28;20911;-76
2021/01/22 01:37:14;;;;;;;4.33;2.67;;;4.60;99.90;;;;;;5030260;28;22823;-77
2021/01/22 01:39:40;;;;;;;3.73;2.37;;;4.70;99.90;;;;;;5035060;28;20980;-77
2021/01/22 01:42:07;;;;;;;2.60;2.10;;;4.50;99.90;;;;;;5022100;28;20200;-76
2021/01/22 01:44:33;;;;;;;2.77;2.37;;;4.50;99.90;;;;;;5025646;28;20563;-77
2021/01/22 01:47:00;;;;;;;3.57;2.67;;;4.40;99.90;;;;;;5019704;28;20234;-77
2021/01/22 01:49:27;;;;;;;2.70;2.40;;;4.50;99.90;;;;;;5038878;28;20238;-77
2021/01/22 01:51:53;;;;;;;5.50;2.80;;;4.50;99.90;;;;;;5009455;28;20216;-77
2021/01/22 01:54:20;;;;;;;3.63;2.60;;;4.50;99.90;;;;;;5037257;28;20228;-76
2021/01/22 01:56:47;;;;;;;4.50;2.40;;;4.50;99.90;;;;;;5044521;28;20206;-77
2021/01/22 01:59:17;;;;;;;2.50;2.20;;;4.40;99.90;;;;;;5035874;28;21464;-76
2021/01/22 02:01:44;;;;;;;2.80;2.10;;;4.30;99.90;;;;;;5018945;28;20636;-77
2021/01/22 02:04:11;;;;;;;2.67;2.33;;;4.30;99.90;;;;;;5043241;28;20723;-77
2021/01/22 02:06:38;;;;;;;2.23;1.93;;;4.30;99.90;;;;;;5039763;28;20228;-77
2021/01/22 02:09:06;;;;;;;3.03;2.30;;;4.20;99.90;;;;;;5035212;28;20272;-76
2021/01/22 02:11:32;;;;;;;3.27;2.23;;;4.40;99.90;;;;;;5032509;28;20251;-77
2021/01/22 02:13:59;;;;;;;2.60;2.07;;;4.30;99.90;;;;;;5050629;28;20266;-77
2021/01/22 02:16:28;;;;;;;2.50;2.10;;;4.40;99.90;;;;;;5035884;28;20229;-77
2021/01/22 02:18:56;;;;;;;2.07;1.87;;;4.40;99.90;;;;;;5035007;28;20205;-75
2021/01/22 02:21:32;;;;;;;1.77;1.50;;;4.40;99.90;;;;;;5022619;28;20195;-77
2021/01/22 02:24:10;;;;;;;3.00;1.80;;;4.30;99.90;;;;;;5019152;28;20205;-77
2021/01/22 02:26:43;;;;;;;1.73;1.30;;;4.30;99.90;;;;;;5037389;28;20211;-78
2021/01/22 02:29:11;;;;;;;1.57;1.43;;;4.30;99.90;;;;;;5036159;28;20211;-77
2021/01/22 02:31:42;;;;;;;2.20;1.03;;;4.30;99.90;;;;;;5052506;28;21019;-77
2021/01/22 02:34:10;;;;;;;1.47;1.00;;;4.30;99.90;;;;;;5056347;28;20320;-77
2021/01/22 02:36:39;;;;;;;1.00;0.73;;;4.20;99.90;;;;;;5041792;28;20332;-76
2021/01/22 02:39:10;;;;;;;2.17;0.97;;;4.10;99.90;;;;;;5043533;28;20216;-77
2021/01/22 02:41:40;;;;;;;1.63;0.90;;;4.10;99.90;;;;;;5022654;28;20571;-78
2021/01/22 02:44:08;;;;;;;1.13;0.90;;;4.00;99.90;;;;;;5021089;28;20669;-77
2021/01/22 02:46:36;;;;;;;0.60;0.60;;;4.00;99.90;;;;;;5034347;28;20290;-78
2021/01/22 02:49:03;;;;;;;1.23;0.50;;;4.00;99.90;;;;;;5016357;28;20200;-77
2021/01/22 02:51:30;;;;;;;1.07;0.50;;;4.00;99.90;;;;;;5037342;28;20564;-75
2021/01/22 02:53:56;;;;;;;1.70;1.03;;;4.10;99.90;;;;;;5036064;28;20298;-78
2021/01/22 02:56:47;;;;;;;2.40;0.60;;;4.00;99.90;;;;;;5036684;28;20612;-77
2021/01/22 02:59:35;;;;;;;1.13;0.37;;;3.90;99.90;;;;;;5041507;28;20200;-77
2021/01/22 03:02:22;;;;;;;0.50;0.30;;;4.00;99.90;;;;;;5038875;28;20297;-77
2021/01/22 03:04:49;;;;;;;0.53;0.40;;;4.00;99.90;;;;;;5039384;28;20725;-77
2021/01/22 03:07:27;;;;;;;0.67;0.40;;;4.00;99.90;;;;;;5022197;28;20635;-77
2021/01/22 03:09:58;;;;;;;1.50;0.60;;;4.00;99.90;;;;;;5041302;28;20568;-77
2021/01/22 03:12:29;;;;;;;0.50;0.37;;;4.00;99.90;;;;;;5039335;28;20209;-76
2021/01/22 03:14:58;;;;;;;0.73;0.50;;;4.00;99.90;;;;;;5029715;28;20610;-77
2021/01/22 03:17:24;;;;;;;0.40;0.30;;;4.10;99.90;;;;;;5026979;28;20202;-77
2021/01/22 03:19:51;;;;;;;1.57;0.50;;;4.10;99.90;;;;;;5036353;28;20200;-76
2021/01/22 03:22:18;;;;;;;3.87;0.37;;;4.00;99.90;;;;;;5040473;28;20287;-78
2021/01/22 03:24:44;;;;;;;2.70;0.60;;;4.10;99.90;;;;;;5044874;28;20361;-76
2021/01/22 03:27:10;;;;;;;0.70;0.70;;;4.00;99.90;;;;;;5043924;28;20537;-77
2021/01/22 03:29:38;;;;;;;0.70;0.70;;;4.00;99.90;;;;;;5039397;28;20200;-76
2021/01/22 03:32:05;;;;;;;0.70;0.70;;;4.00;99.90;;;;;;5045499;28;20313;-76
2021/01/22 03:34:32;;;;;;;1.47;0.90;;;4.00;99.90;;;;;;5056466;28;20206;-77
2021/01/22 03:37:00;;;;;;;1.97;0.93;;;4.00;99.90;;;;;;5040064;28;20237;-77
2021/01/22 03:39:27;;;;;;;1.80;0.97;;;4.10;99.90;;;;;;5040640;28;20300;-77
2021/01/22 03:41:54;;;;;;;3.87;1.73;;;4.00;99.90;;;;;;5037961;28;20200;-77
2021/01/22 03:44:20;;;;;;;1.50;1.30;;;4.00;99.90;;;;;;5040535;28;20296;-76
2021/01/22 03:46:48;;;;;;;2.70;1.10;;;4.00;99.90;;;;;;5045510;28;20235;-76
2021/01/22 03:49:14;;;;;;;2.73;1.40;;;4.00;99.90;;;;;;5019015;28;20286;-76
2021/01/22 03:51:40;;;;;;;2.63;1.50;;;4.00;99.90;;;;;;5036575;28;20334;-77
2021/01/22 03:54:07;;;;;;;3.67;1.40;;;4.00;99.90;;;;;;5036162;28;20299;-77
2021/01/22 03:56:33;;;;;;;2.40;1.63;;;4.00;99.90;;;;;;5039441;28;20514;-77
2021/01/22 03:58:59;;;;;;;2.03;1.60;;;4.00;99.90;;;;;;5038957;28;20328;-75
2021/01/22 04:01:31;;;;;;;5.13;1.57;;;4.00;99.90;;;;;;5037474;28;20350;-77
2021/01/22 04:03:57;;;;;;;3.33;1.83;;;4.00;99.90;;;;;;5031512;28;20216;-76
2021/01/22 04:06:24;;;;;;;2.03;1.83;;;4.00;99.90;;;;;;5037580;28;20258;-77
2021/01/22 04:08:51;;;;;;;4.10;1.77;;;4.00;99.90;;;;;;5042571;28;20702;-76
2021/01/22 04:11:18;;;;;;;4.60;2.03;;;3.90;99.90;;;;;;5043084;28;20212;-76
2021/01/22 04:13:44;;;;;;;2.63;2.23;;;3.90;99.90;;;;;;5022886;28;20231;-76
2021/01/22 04:16:12;;;;;;;3.77;2.37;;;3.90;99.90;;;;;;5014585;28;20287;-77
2021/01/22 04:18:39;;;;;;;4.13;2.70;;;3.90;99.90;;;;;;5044235;28;20295;-76
2021/01/22 04:21:06;;;;;;;4.70;2.70;;;3.80;99.90;;;;;;5023391;28;20199;-76
2021/01/22 04:23:33;;;;;;;5.10;2.53;;;3.80;99.90;;;;;;5039076;28;20197;-76
2021/01/22 04:25:59;;;;;;;3.97;2.80;;;3.80;99.90;;;;;;5040857;28;20211;-78
2021/01/22 04:28:25;;;;;;;7.67;4.47;;;3.80;99.90;;;;;;5041045;28;20262;-76
2021/01/22 04:30:52;;;;;;;3.40;3.03;;;3.80;99.90;;;;;;5035927;28;20334;-76
2021/01/22 04:33:18;;;;;;;3.27;2.83;;;3.80;99.90;;;;;;5039738;28;20212;-76
2021/01/22 04:35:45;;;;;;;4.47;3.20;;;3.80;99.90;;;;;;5020043;28;20235;-76
2021/01/22 04:38:11;;;;;;;4.53;3.50;;;3.80;99.90;;;;;;5023036;28;20205;-76
2021/01/22 04:40:38;;;;;;;5.20;3.17;;;3.80;99.90;;;;;;5020148;28;20223;-76
2021/01/22 04:43:05;;;;;;;6.27;3.70;;;3.80;99.90;;;;;;5021831;28;20200;-76
2021/01/22 04:45:31;;;;;;;6.60;3.53;;;3.80;99.90;;;;;;5021538;28;20204;-76
2021/01/22 04:48:03;;;;;;;6.20;3.70;;;3.80;99.90;;;;;;5021010;28;20277;-76
2021/01/22 04:50:31;;;;;;;5.60;3.50;;;3.70;99.90;;;;;;5039712;28;20231;-76
2021/01/22 04:53:02;;;;;;;5.23;3.43;;;3.80;99.90;;;;;;5042543;28;20257;-76
2021/01/22 04:55:31;;;;;;;6.23;3.83;;;3.80;99.90;;;;;;5022620;28;20205;-76
2021/01/22 04:58:01;;;;;;;8.30;4.17;;;3.80;99.90;;;;;;5057717;28;20196;-76
2021/01/22 05:00:28;;;;;;;4.07;3.23;;;3.80;99.90;;;;;;5038119;28;20326;-76
2021/01/22 05:02:54;;;;;;;5.97;4.07;;;3.80;99.90;;;;;;5024990;28;20235;-76
2021/01/22 05:05:21;;;;;;;8.23;4.70;;;3.80;99.90;;;;;;5040964;28;20205;-76
2021/01/22 05:07:48;;;;;;;7.57;4.47;;;3.80;99.90;;;;;;5037779;28;20567;-77
2021/01/22 05:10:14;;;;;;;8.70;4.40;;;4.00;99.90;;;;;;5035172;28;20200;-76
2021/01/22 05:12:41;;;;;;;7.07;4.20;;;3.90;99.90;;;;;;5040198;28;20556;-75
2021/01/22 05:15:22;;;;;;;6.37;4.63;;;3.90;99.90;;;;;;5031467;28;20334;-76
2021/01/22 05:17:57;;;;;;;9.13;4.10;;;3.90;99.90;;;;;;5053054;28;20715;-76
2021/01/22 05:20:42;;;;;;;9.37;5.17;;;3.90;99.90;;;;;;5039162;28;20233;-76
2021/01/22 05:23:10;;;;;;;14.23;5.13;;;3.90;99.90;;;;;;5039120;28;20223;-77
2021/01/22 05:26:02;;;;;;;9.60;5.30;;;3.90;99.90;;;;;;5036329;28;20666;-76
2021/01/22 05:28:36;;;;;;;5.03;4.53;;;4.00;99.90;;;;;;5038105;28;20543;-76
2021/01/22 05:31:07;;;;;;;12.87;5.20;;;3.90;99.90;;;;;;5019401;28;20298;-76
2021/01/22 05:33:35;;;;;;;8.17;6.40;;;4.00;99.90;;;;;;5039151;28;20260;-76
2021/01/22 05:36:23;;;;;;;9.73;5.17;;;4.00;99.90;;;;;;5028180;28;20209;-76
2021/01/22 05:38:54;;;;;;;6.03;4.60;;;4.00;99.90;;;;;;5040839;28;20218;-78
2021/01/22 05:41:21;;;;;;;7.63;4.97;;;3.90;99.90;;;;;;5036214;28;20346;-76
2021/01/22 05:43:49;;;;;;;10.90;5.30;;;3.90;99.90;;;;;;5043125;28;20501;-77
2021/01/22 05:46:21;;;;;;;7.00;4.63;;;3.90;99.90;;;;;;5019710;28;20295;-76
2021/01/22 05:48:47;;;;;;;7.40;5.13;;;3.90;99.90;;;;;;5034242;28;20205;-77
2021/01/22 05:51:14;;;;;;;6.37;5.50;;;3.90;99.90;;;;;;5022722;28;20195;-78
2021/01/22 05:53:47;;;;;;;14.10;5.20;;;3.90;99.90;;;;;;5020352;28;20306;-76
2021/01/22 05:56:16;;;;;;;7.57;4.30;;;3.90;99.90;;;;;;5049160;28;20231;-76
2021/01/22 05:58:44;;;;;;;8.20;6.00;;;3.80;99.90;;;;;;5037340;28;20226;-77
2021/01/22 06:01:12;;;;;;;11.77;5.20;;;3.80;99.90;;;;;;5019701;28;20548;-76
2021/01/22 06:03:42;;;;;;;7.80;4.83;;;3.70;99.90;;;;;;5036693;28;20205;-75
2021/01/22 06:06:10;;;;;;;9.03;5.43;;;3.70;99.90;;;;;;5036775;28;20202;-77
2021/01/22 06:08:59;;;;;;;10.13;5.47;;;3.70;99.90;;;;;;5037961;28;20281;-76
2021/01/22 06:11:27;;;;;;;8.17;4.73;;;3.70;99.90;;;;;;5059261;28;21025;-77
2021/01/22 06:13:58;;;;;;;7.00;5.13;;;3.70;99.90;;;;;;5037860;28;20286;-76
2021/01/22 06:16:27;;;;;;;7.33;5.20;;;3.70;99.90;;;;;;5023798;28;20648;-77
2021/01/22 06:19:01;;;;;;;8.33;4.73;;;3.70;99.90;;;;;;5022280;28;20324;-74
2021/01/22 06:21:34;;;;;;;11.60;5.83;;;3.70;99.90;;;;;;5039247;28;20220;-76
2021/01/22 06:24:04;;;;;;;10.83;5.23;;;3.80;99.90;;;;;;5022157;28;20738;-76
2021/01/22 06:26:40;;;;;;;9.47;5.17;;;3.70;99.90;;;;;;5017706;28;20204;-76
2021/01/22 06:29:10;;;;;;;10.37;4.80;;;3.70;99.90;;;;;;5034019;28;20229;-76
2021/01/22 06:31:38;;;;;;;7.10;4.70;;;3.70;99.90;;;;;;5038243;28;20232;-76
2021/01/22 06:34:05;;;;;;;6.10;4.10;;;3.70;99.90;;;;;;5037059;28;20200;-76
2021/01/22 06:36:32;;;;;;;10.10;5.20;;;3.70;99.90;;;;;;5024660;28;20621;-76
2021/01/22 06:39:00;;;;;;;6.70;4.93;;;3.70;99.90;;;;;;5020503;28;20197;-75
2021/01/22 06:41:28;;;;;;;10.50;4.47;;;3.70;99.90;;;;;;5027456;28;21861;-77
2021/01/22 06:43:58;;;;;;;8.37;4.83;;;3.70;99.90;;;;;;5021287;28;20208;-76
2021/01/22 06:46:32;;;;;;;7.30;5.20;;;3.70;99.90;;;;;;5019406;28;20225;-76
2021/01/22 06:49:04;;;;;;;11.83;5.20;;;3.70;99.90;;;;;;5021547;28;21060;-76
2021/01/22 06:51:34;;;;;;;7.03;4.97;;;3.70;99.90;;;;;;5030451;28;20223;-76
2021/01/22 06:54:21;;;;;;;8.13;4.93;;;3.70;99.90;;;;;;5024529;28;20684;-76
2021/01/22 06:56:47;;;;;;;7.03;4.63;;;3.70;99.90;;;;;;5033824;28;20202;-76
2021/01/22 06:59:20;;;;;;;12.93;5.03;;;3.80;99.90;;;;;;5034780;28;20209;-75
2021/01/22 07:01:50;;;;;;;7.90;4.40;;;3.80;99.90;;;;;;5053357;28;20266;-76
2021/01/22 07:04:29;;;;;;;7.60;4.47;;;3.80;99.90;;;;;;5017261;28;20286;-76
2021/01/22 07:06:57;;;;;;;8.63;5.07;;;3.70;99.90;;;;;;5035413;28;20640;-76
2021/01/22 07:09:44;;;;;;;9.60;5.07;;;3.80;99.90;;;;;;5020726;28;20603;-76
2021/01/22 07:12:15;;;;;;;6.73;4.77;;;3.80;99.90;;;;;;5055042;28;20223;-74
2021/01/22 07:14:47;;;;;;;7.70;5.57;;;3.80;99.90;;;;;;5019254;28;20204;-76
2021/01/22 07:17:28;;;;;;;9.50;5.07;;;3.80;99.90;;;;;;5033766;28;20200;-78
2021/01/22 07:20:07;;;;;;;6.63;5.20;;;3.70;99.90;;;;;;5014846;28;20203;-77
2021/01/22 07:22:35;;;;;;;10.17;5.20;;;3.70;99.90;;;;;;5042067;28;20220;-77
2021/01/22 07:25:04;;;;;;;8.07;5.20;;;3.70;99.90;;;;;;5026873;28;20290;-75
2021/01/22 07:27:44;;;;;;;8.80;5.20;;;3.70;99.90;;;;;;5020696;28;20199;-78
2021/01/22 07:30:15;;;;;;;10.57;5.10;;;3.70;99.90;;;;;;5024908;28;20207;-77
2021/01/22 07:32:43;;;;;;;8.07;4.90;;;3.80;99.90;;;;;;5040410;28;20216;-78
2021/01/22 07:35:19;;;;;;;11.03;5.63;;;3.70;99.90;;;;;;5036911;28;20258;-75
2021/01/22 07:37:47;;;;;;;6.87;4.97;;;3.70;99.90;;;;;;5041117;28;20240;-75
2021/01/22 07:40:13;;;;;;;9.33;5.47;;;3.70;99.90;;;;;;5051986;28;20885;-76
2021/01/22 07:42:42;;;;;;;7.60;5.23;;;3.70;99.90;;;;;;5039897;28;20205;-76
2021/01/22 07:45:14;;;;;;;10.00;5.67;;;3.70;99.90;;;;;;5039424;28;20216;-76
2021/01/22 07:47:45;;;;;;;10.67;5.27;;;3.70;99.90;;;;;;5041449;28;20238;-76
2021/01/22 07:50:17;;;;;;;10.00;4.93;;;3.70;99.90;;;;;;5042895;28;20206;-77
2021/01/22 07:52:46;;;;;;;8.57;5.23;;;3.70;99.90;;;;;;5026383;28;20223;-77
2021/01/22 07:55:17;;;;;;;7.63;5.27;;;3.70;99.90;;;;;;5036739;28;20314;-77
2021/01/22 07:57:45;;;;;;;7.17;4.90;;;3.70;99.90;;;;;;5037644;28;20205;-76
2021/01/22 08:00:16;;;;;;;10.10;6.23;;;3.80;99.90;;;;;;5040793;28;20220;-78
2021/01/22 08:02:55;;;;;;;10.13;5.30;;;3.80;99.90;;;;;;5048541;28;20216;-78
2021/01/22 08:05:33;;;;;;;9.60;4.67;;;3.70;99.90;;;;;;5038728;28;20262;-78
2021/01/22 08:08:00;;;;;;;8.60;5.47;;;3.80;99.90;;;;;;5026570;28;20207;-78
2021/01/22 08:10:31;;;;;;;8.90;6.07;;;3.80;99.90;;;;;;5037114;28;20232;-78
2021/01/22 08:13:01;;;;;;;9.40;5.97;;;3.80;99.90;;;;;;5036566;28;20224;-75
2021/01/22 08:15:28;;;;;;;6.73;5.30;;;3.80;99.90;;;;;;5033361;28;20216;-74
2021/01/22 08:17:55;;;;;;;12.67;5.33;;;3.80;99.90;;;;;;5026455;28;20198;-74
2021/01/22 08:20:22;;;;;;;8.97;6.07;;;3.80;99.90;;;;;;5024253;28;20228;-75
2021/01/22 08:22:53;;;;;;;11.13;5.30;;;3.90;99.90;;;;;;5042462;28;20376;-74
2021/01/22 08:25:32;;;;;;;10.27;5.13;;;3.90;99.90;;;;;;5035547;28;20658;-74
2021/01/22 08:28:07;;;;;;;8.13;5.53;;;3.90;99.90;;;;;;5039617;28;20218;-74
2021/01/22 08:30:35;;;;;;;9.23;5.50;;;3.80;99.90;;;;;;5037717;28;20251;-72
2021/01/22 08:33:02;;;;;;;9.63;5.30;;;3.90;99.90;;;;;;5023949;28;20224;-73
2021/01/22 08:35:29;;;;;;;10.67;5.77;;;3.90;99.90;;;;;;5035974;28;20222;-73
2021/01/22 08:37:57;;;;;;;8.47;5.37;;;3.90;99.90;;;;;;5040357;28;20256;-75
2021/01/22 08:40:39;;;;;;;10.97;5.53;;;3.90;99.90;;;;;;5023526;28;20233;-76
2021/01/22 08:43:09;;;;;;;9.63;4.67;;;4.00;99.90;;;;;;5022724;28;20534;-74
2021/01/22 08:45:40;;;;;;;11.50;5.80;;;4.00;99.90;;;;;;5042858;28;20214;-74
2021/01/22 08:48:07;;;;;;;10.87;5.90;;;4.00;99.90;;;;;;5051693;28;20982;-73
2021/01/22 08:50:34;;;;;;;9.33;5.53;;;4.00;99.90;;;;;;5038245;28;20213;-73
2021/01/22 08:53:09;;;;;;;7.10;5.10;;;4.00;99.90;;;;;;5026149;28;20239;-73
2021/01/22 08:55:37;;;;;;;13.03;6.70;;;4.00;99.90;;;;;;5041020;28;20207;-76
2021/01/22 08:58:05;;;;;;;6.40;4.90;;;4.10;99.90;;;;;;5037007;28;20255;-73
2021/01/22 09:00:31;;;;;;;14.37;6.20;;;4.10;99.90;;;;;;5040074;28;20194;-73
2021/01/22 09:02:58;;;;;;;10.43;5.10;;;4.20;99.90;;;;;;5037255;28;20228;-74
2021/01/22 09:05:25;;;;;;;8.40;5.73;;;4.20;99.90;;;;;;5024135;28;20210;-73
2021/01/22 09:08:24;;;;;;;10.10;5.43;;;4.20;99.90;;;;;;5045079;28;20208;-73
2021/01/22 09:10:50;;;;;;;10.33;6.03;;;4.20;99.90;;;;;;4990177;28;20209;-74
2021/01/22 09:13:26;;;;;;;11.50;5.57;;;4.20;99.90;;;;;;5027720;28;20242;-74
2021/01/22 09:16:07;;;;;;;10.87;5.33;;;4.30;99.90;;;;;;5028635;28;20213;-74
2021/01/22 09:18:33;;;;;;;12.60;6.17;;;4.30;99.90;;;;;;5034617;28;20196;-73
2021/01/22 09:21:05;;;;;;;8.20;5.00;;;4.30;99.90;;;;;;5036770;28;20196;-73
2021/01/22 09:23:32;;;;;;;9.30;5.37;;;4.30;99.90;;;;;;5019824;28;20203;-73
2021/01/22 09:26:00;;;;;;;8.33;5.73;;;4.40;99.90;;;;;;5032128;28;21037;-75
2021/01/22 09:28:27;;;;;;;14.80;5.93;;;4.40;99.90;;;;;;5019417;28;20213;-75
2021/01/22 09:30:54;;;;;;;9.47;5.67;;;4.50;99.90;;;;;;5015233;28;20272;-74
2021/01/22 09:33:20;;;;;;;7.00;5.00;;;4.50;99.90;;;;;;5021904;28;20605;-76
2021/01/22 09:35:47;;;;;;;10.60;5.40;;;4.50;99.90;;;;;;5029273;28;20252;-77
2021/01/22 09:38:13;;;;;;;8.90;4.60;;;4.50;99.90;;;;;;5032618;28;20242;-77
2021/01/22 09:40:39;;;;;;;9.77;4.83;;;4.60;99.90;;;;;;5034151;28;20232;-74
2021/01/22 09:43:06;;;;;;;10.57;5.03;;;4.70;99.90;;;;;;5021212;28;20538;-74
2021/01/22 09:45:33;;;;;;;14.18;6.38;;;4.60;99.90;;;;;;5029886;28;20504;-74
2021/01/22 09:48:00;;;;;;;8.53;4.97;;;4.80;99.90;;;;;;5020946;28;20242;-73
2021/01/22 09:50:27;;;;;;;13.23;5.27;;;4.90;99.90;;;;;;5035781;28;20298;-73
2021/01/22 09:52:53;;;;;;;15.37;4.83;;;5.00;99.90;;;;;;5038662;28;20212;-76
2021/01/22 09:55:20;;;;;;;8.53;4.63;;;4.90;99.90;;;;;;5036079;28;20257;-73
2021/01/22 09:57:46;;;;;;;10.77;4.53;;;5.10;99.90;;;;;;5007553;28;20240;-73
2021/01/22 10:00:15;;;;;;;6.43;4.33;;;5.20;99.90;;;;;;5000635;28;20276;-73
2021/01/22 10:02:42;;;;;;;10.50;4.63;;;5.20;99.90;;;;;;5037016;28;20224;-73
2021/01/22 10:05:10;;;;;;;11.30;4.23;;;5.50;99.90;;;;;;5036714;28;20205;-74
2021/01/22 10:07:37;;;;;;;6.87;3.77;;;5.60;99.90;;;;;;5029988;28;20348;-73
2021/01/22 10:10:07;;;;;;;7.47;4.80;;;5.50;99.90;;;;;;5020069;28;20210;-74
2021/01/22 10:12:33;;;;;;;5.47;4.30;;;5.60;99.90;;;;;;5024104;28;20684;-76
2021/01/22 10:15:00;;;;;;;8.73;4.40;;;5.80;99.90;;;;;;5021045;28;20236;-73
2021/01/22 10:17:28;;;;;;;6.03;3.53;;;5.90;99.90;;;;;;5030367;28;20199;-76
2021/01/22 10:19:55;;;;;;;12.60;4.53;;;6.10;99.90;;;;;;5017947;28;20335;-75
2021/01/22 10:22:21;;;;;;;7.47;3.80;;;6.00;99.90;;;;;;5019211;28;20210;-74
2021/01/22 10:24:47;;;;;;;9.30;3.90;;;6.20;99.90;;;;;;5035178;28;20271;-73
2021/01/22 10:27:14;;;;;;;7.80;4.00;;;6.10;99.90;;;;;;5034892;28;20217;-74
2021/01/22 10:29:40;;;;;;;4.97;3.40;;;6.20;99.90;;;;;;5017965;28;20721;-75
2021/01/22 10:32:06;;;;;;;8.13;3.10;;;6.40;99.90;;;;;;5029432;28;20260;-74
2021/01/22 10:34:33;;;;;;;6.80;3.03;;;6.30;99.90;;;;;;5035484;28;20916;-76
2021/01/22 10:36:59;;;;;;;8.57;3.43;;;6.30;99.90;;;;;;5033135;28;20236;-75
2021/01/22 10:39:27;;;;;;;5.73;2.90;;;6.50;99.90;;;;;;5013641;28;20205;-74
2021/01/22 10:41:53;;;;;;;6.97;3.20;;;6.60;99.90;;;;;;5020401;28;20193;-75
2021/01/22 10:44:20;;;;;;;4.90;2.97;;;6.50;99.90;;;;;;5019057;28;20308;-74
2021/01/22 10:46:46;;;;;;;8.00;3.50;;;6.70;99.90;;;;;;5018155;28;20243;-74
2021/01/22 10:49:13;;;;;;;6.77;3.27;;;6.80;99.90;;;;;;5033284;28;20196;-73
2021/01/22 10:51:39;;;;;;;5.97;3.70;;;7.10;99.90;;;;;;5033221;28;21094;-75
2021/01/22 10:54:06;;;;;;;9.47;3.77;;;7.00;99.90;;;;;;4999822;28;20644;-74
2021/01/22 10:56:34;;;;;;;8.97;2.67;;;6.80;99.90;;;;;;5015877;28;20238;-75
2021/01/22 10:59:00;;;;;;;8.03;3.13;;;6.90;99.90;;;;;;5010779;28;21037;-75
2021/01/22 11:01:26;;;;;;;8.40;3.20;;;6.90;99.90;;;;;;5014198;28;20207;-74
2021/01/22 11:03:53;;;;;;;5.57;3.07;;;7.00;99.90;;;;;;5012727;28;20211;-75
2021/01/22 11:06:19;;;;;;;5.03;2.27;;;6.90;99.90;;;;;;5012508;28;20703;-74
2021/01/22 11:08:46;;;;;;;7.77;3.00;;;7.10;99.90;;;;;;5030065;28;20265;-74
2021/01/22 11:11:12;;;;;;;8.40;3.30;;;7.00;99.90;;;;;;5036384;28;20207;-73
2021/01/22 11:13:38;;;;;;;3.30;2.60;;;7.10;99.90;;;;;;5015866;28;20744;-74
2021/01/22 11:16:05;;;;;;;6.43;2.50;;;7.10;99.90;;;;;;5029725;28;21121;-75
2021/01/22 11:18:31;;;;;;;7.07;3.37;;;6.80;99.90;;;;;;5013933;28;20199;-74
2021/01/22 11:20:58;;;;;;;7.00;3.00;;;6.80;99.90;;;;;;5035420;28;20293;-74
2021/01/22 11:23:24;;;;;;;7.27;3.00;;;6.90;99.90;;;;;;5032320;28;20601;-74
2021/01/22 11:25:50;;;;;;;4.30;2.97;;;6.80;99.90;;;;;;5014751;28;20203;-74
2021/01/22 11:28:17;;;;;;;7.80;3.20;;;6.70;99.90;;;;;;5030174;28;20624;-75
2021/01/22 11:30:43;;;;;;;7.47;3.33;;;6.80;99.90;;;;;;5006414;28;20260;-74
2021/01/22 11:33:10;;;;;;;6.40;3.77;;;7.00;99.90;;;;;;5028094;28;20324;-74
2021/01/22 11:35:38;;;;;;;10.43;3.60;;;7.20;99.90;;;;;;5031511;28;20302;-74
2021/01/22 11:38:06;;;;;;;7.03;3.73;;;7.20;99.90;;;;;;5012739;28;20209;-73
2021/01/22 11:40:32;;;;;;;9.40;3.20;;;7.10;99.90;;;;;;5018392;28;20207;-74
2021/01/22 11:43:00;;;;;;;7.17;3.17;;;7.40;99.90;;;;;;5039384;28;20229;-75
2021/01/22 11:45:27;;;;;;;5.00;3.03;;;7.60;99.90;;;;;;5033310;28;20223;-74
2021/01/22 11:47:54;;;;;;;8.33;3.27;;;8.00;99.90;;;;;;5022706;28;20714;-74
2021/01/22 11:50:20;;;;;;;6.23;2.17;;;7.80;99.90;;;;;;5016115;28;20802;-73
2021/01/22 11:52:47;;;;;;;5.53;2.67;;;7.90;99.90;;;;;;5005297;28;20271;-74
2021/01/22 11:55:13;;;;;;;4.40;2.30;;;8.30;99.90;;;;;;5026350;28;20217;-74
2021/01/22 11:57:39;;;;;;;11.90;2.90;;;8.50;99.90;;;;;;5035208;28;20245;-75
2021/01/22 12:00:06;;;;;;;7.80;2.50;;;8.40;99.90;;;;;;5018068;28;20260;-74
2021/01/22 12:02:33;;;;;;;7.03;2.60;;;8.20;84.80;;;;;;5016938;28;20250;-75
2021/01/22 12:04:59;;;;;;;6.93;2.47;;;8.40;41.10;;;;;;5025761;28;20215;-73
2021/01/22 12:07:27;;;;;;;11.23;2.47;;;8.00;99.90;;;;;;5007021;28;20276;-74
2021/01/22 12:09:54;;;;;;;4.97;1.93;;;8.30;99.90;;;;;;5048819;28;20211;-75
2021/01/22 12:12:22;;;;;;;2.90;2.10;;;8.20;80.50;;;;;;5020021;28;20281;-74
2021/01/22 12:14:48;;;;;;;6.57;2.10;;;8.40;92.50;;;;;;5035767;28;20281;-74
2021/01/22 12:17:15;;;;;;;3.90;1.80;;;9.10;1.00;;;;;;5034795;28;20262;-74
2021/01/22 12:19:41;;;;;;;5.33;2.10;;;8.90;1.00;;;;;;5018957;28;20354;-74
2021/01/22 12:22:07;;;;;;;4.77;2.23;;;8.30;12.00;;;;;;5009803;28;20666;-75
2021/01/22 12:24:34;;;;;;;6.43;2.50;;;8.50;49.80;;;;;;5035425;28;20208;-75
2021/01/22 12:27:00;;;;;;;4.93;2.50;;;9.00;13.50;;;;;;5026061;28;20208;-75
2021/01/22 12:29:27;;;;;;;8.50;2.50;;;9.30;1.00;;;;;;5044864;28;20648;-79
2021/01/22 12:31:54;;;;;;;4.43;2.17;;;8.50;1.00;;;;;;5034073;28;20206;-74
2021/01/22 12:34:20;;;;;;;7.63;2.50;;;8.60;26.00;;;;;;5038228;28;20225;-74
2021/01/22 12:36:47;;;;;;;6.83;2.30;;;8.80;1.00;;;;;;5032154;28;21557;-73
2021/01/22 12:39:13;;;;;;;5.07;2.10;;;8.60;1.00;;;;;;5049635;28;20290;-74
2021/01/22 12:41:39;;;;;;;7.77;2.80;;;8.30;1.00;;;;;;5028420;28;20207;-74
2021/01/22 12:44:06;;;;;;;7.60;2.40;;;8.20;9.40;;;;;;5018262;28;20302;-74
2021/01/22 12:46:32;;;;;;;7.20;2.87;;;7.90;1.20;;;;;;5018548;28;20221;-74
2021/01/22 12:48:59;;;;;;;8.93;3.17;;;7.90;33.00;;;;;;5032956;28;20432;-74
2021/01/22 12:51:25;;;;;;;5.80;2.17;;;8.00;64.20;;;;;;5007390;28;20227;-73
2021/01/22 12:53:52;;;;;;;9.60;2.67;;;8.10;12.80;;;;;;5022826;28;20238;-74
2021/01/22 12:56:18;;;;;;;2.70;2.37;;;7.90;7.60;;;;;;5020643;28;20296;-74
2021/01/22 12:58:46;;;;;;;3.73;2.37;;;7.80;1.00;;;;;;5051614;28;22189;-73
2021/01/22 13:01:13;;;;;;;3.57;2.10;;;7.60;7.00;;;;;;5015530;28;20348;-73
2021/01/22 13:03:39;;;;;;;5.13;2.20;;;7.80;24.70;;;;;;5020423;28;20295;-74